createdAt,value
2022-07-29T00:02:46.208Z,42.67
2022-07-29T00:17:48.573Z,42.91
2022-07-29T00:32:50.978Z,42.77
2022-07-29T00:47:53.400Z,43.27
2022-07-29T01:02:55.705Z,42.42
2022-07-29T01:17:58.026Z,42.52
2022-07-29T01:33:00.314Z,40.82
2022-07-29T01:48:02.770Z,38.21
2022-07-29T02:03:05.031Z,36.82
2022-07-29T02:18:07.367Z,36.34
2022-07-29T02:33:09.689Z,35.56
2022-07-29T02:48:11.988Z,34.73
2022-07-29T03:03:14.489Z,34.4
2022-07-29T03:18:16.848Z,33.91
2022-07-29T03:33:19.707Z,33.55
2022-07-29T03:48:22.728Z,32.92
2022-07-29T04:03:25.094Z,32.61
2022-07-29T04:18:27.473Z,31.67
2022-07-29T04:33:29.677Z,31.36
2022-07-29T04:48:32.135Z,30.74
2022-07-29T05:03:34.483Z,30.41
2022-07-29T05:18:36.790Z,30.34
2022-07-29T05:33:39.112Z,30.55
2022-07-29T05:48:41.487Z,29.84
2022-07-29T06:03:43.901Z,29.91
2022-07-29T06:18:46.257Z,29.29
2022-07-29T06:33:48.761Z,28.74
2022-07-29T06:48:51.221Z,28.98
2022-07-29T07:03:53.657Z,28.55
2022-07-29T07:18:55.988Z,28.45
2022-07-29T07:33:58.272Z,26.96
2022-07-29T07:49:00.569Z,26.56
2022-07-29T08:04:02.895Z,26.67
2022-07-29T08:19:05.204Z,26.25
2022-07-29T08:34:07.497Z,26.59
2022-07-29T08:49:09.968Z,25.77
2022-07-29T09:04:12.312Z,25.8
2022-07-29T09:19:14.544Z,25.23
2022-07-29T09:34:16.874Z,25.16
2022-07-29T09:49:19.279Z,24.35
2022-07-29T10:04:21.639Z,23.66
2022-07-29T10:19:23.926Z,24.19
2022-07-29T10:34:26.193Z,23.79
2022-07-29T10:49:30.612Z,23.47
2022-07-29T11:04:33.249Z,23.2
2022-07-29T11:19:35.830Z,23.62
2022-07-29T11:34:38.296Z,23.01
2022-07-29T11:49:44.517Z,23.66
2022-07-29T12:04:47.074Z,23.41
2022-07-29T12:19:49.375Z,23.54
2022-07-29T12:34:53.309Z,22.93
2022-07-29T12:49:55.714Z,23.04
2022-07-29T13:04:58.088Z,23.09
2022-07-29T13:20:00.470Z,23.92
2022-07-29T13:35:06.338Z,23.73
2022-07-29T13:50:08.573Z,23.6
2022-07-29T14:05:10.939Z,22.89
2022-07-29T14:20:13.392Z,24.49
2022-07-29T14:35:15.689Z,25.26
2022-07-29T14:50:17.956Z,25.06
2022-07-29T15:05:34.387Z,26.1
2022-07-29T15:20:36.730Z,28.14
2022-07-29T15:35:39.913Z,29.38
2022-07-29T15:50:43.156Z,29.1
2022-07-29T16:05:49.645Z,31.2
2022-07-29T16:20:51.963Z,31.38
2022-07-29T16:35:54.235Z,32.5
2022-07-29T16:50:56.496Z,32.69
2022-07-29T17:05:58.781Z,33.08
2022-07-29T17:21:01.200Z,33.78
2022-07-29T17:36:03.464Z,34.19
2022-07-29T17:51:05.786Z,34.69
2022-07-29T18:06:08.010Z,35.26
2022-07-29T18:21:10.318Z,35.92
2022-07-29T18:36:12.596Z,36.3
2022-07-29T18:51:14.960Z,36.57
2022-07-29T19:06:22.648Z,37.05
2022-07-29T19:21:27.875Z,37.41
2022-07-29T19:36:30.152Z,37.29
2022-07-29T19:51:32.443Z,38.46
2022-07-29T20:06:34.736Z,38.74
2022-07-29T20:21:37.275Z,39.59
2022-07-29T20:36:39.592Z,40.37
2022-07-29T20:51:43.427Z,41.1
2022-07-29T21:06:46.358Z,41.86
2022-07-29T21:21:48.596Z,41.22
2022-07-29T21:36:51.021Z,40.74
2022-07-29T21:51:53.357Z,42.34
2022-07-29T22:06:55.696Z,41.96
2022-07-29T22:21:57.952Z,42.98
2022-07-29T22:37:00.419Z,42.47
2022-07-29T22:52:03.080Z,41.15
2022-07-29T23:07:05.440Z,42.28
2022-07-29T23:22:07.706Z,43.92
2022-07-29T23:37:09.983Z,43.77
2022-07-29T23:52:12.261Z,43.48
